createdAt,value
2022-09-10T00:01:59.535Z,26.58
2022-09-10T00:04:28.005Z,26.59
2022-09-10T00:06:55.442Z,26.56
2022-09-10T00:09:22.445Z,26.58
2022-09-10T00:11:49.089Z,26.57
2022-09-10T00:14:22.048Z,26.58
2022-09-10T00:16:50.547Z,26.58
2022-09-10T00:19:18.315Z,26.58
2022-09-10T00:21:45.373Z,26.57
2022-09-10T00:24:12.822Z,26.51
2022-09-10T00:26:39.785Z,26.57
2022-09-10T00:29:08.888Z,26.53
2022-09-10T00:31:36.490Z,26.56
2022-09-10T00:34:05.550Z,26.56
2022-09-10T00:36:36.351Z,26.56
2022-09-10T00:39:08.331Z,26.56
2022-09-10T00:41:37.527Z,26.55
2022-09-10T00:44:26.055Z,26.54
2022-09-10T00:46:54.759Z,26.55
2022-09-10T00:49:33.461Z,26.54
2022-09-10T00:52:00.999Z,26.48
2022-09-10T00:54:30.661Z,26.54
2022-09-10T00:57:02.756Z,26.55
2022-09-10T00:59:30.997Z,26.54
2022-09-10T01:01:59.722Z,26.51
2022-09-10T01:04:28.577Z,26.54
2022-09-10T01:06:56.167Z,26.53
2022-09-10T01:09:24.360Z,26.53
2022-09-10T01:12:12.797Z,26.54
2022-09-10T01:14:54.659Z,26.53
2022-09-10T01:17:34.071Z,26.53
2022-09-10T01:20:19.597Z,26.52
2022-09-10T01:23:17.050Z,26.53
2022-09-10T01:26:12.781Z,26.51
2022-09-10T01:29:10.332Z,26.51
2022-09-10T01:31:42.012Z,26.50
2022-09-10T01:34:25.063Z,26.51
2022-09-10T01:36:55.998Z,26.51
2022-09-10T01:39:24.495Z,26.50
2022-09-10T01:41:54.461Z,26.51
2022-09-10T01:44:46.283Z,26.50
2022-09-10T01:47:27.763Z,26.43
2022-09-10T01:50:12.619Z,26.51
2022-09-10T01:53:05.200Z,26.51
2022-09-10T01:55:57.116Z,26.49
2022-09-10T01:58:24.242Z,26.49
2022-09-10T02:01:18.006Z,26.48
2022-09-10T02:03:48.273Z,26.49
2022-09-10T02:06:19.378Z,26.48
2022-09-10T02:08:52.140Z,26.47
2022-09-10T02:11:19.237Z,26.47
2022-09-10T02:13:49.443Z,26.47
2022-09-10T02:16:39.156Z,26.46
2022-09-10T02:19:06.491Z,26.47
2022-09-10T02:21:33.945Z,26.47
2022-09-10T02:24:08.375Z,26.45
2022-09-10T02:26:38.184Z,26.46
2022-09-10T02:29:07.230Z,26.45
2022-09-10T02:31:34.087Z,26.43
2022-09-10T02:34:03.085Z,26.47
2022-09-10T02:36:31.831Z,26.46
2022-09-10T02:38:59.491Z,26.47
2022-09-10T02:41:28.274Z,26.46
2022-09-10T02:43:55.442Z,26.44
2022-09-10T02:46:22.243Z,26.45
2022-09-10T02:48:48.876Z,26.46
2022-09-10T02:51:15.895Z,26.46
2022-09-10T02:53:42.891Z,26.45
2022-09-10T02:56:09.548Z,26.44
2022-09-10T02:58:36.823Z,26.44
2022-09-10T03:01:10.374Z,26.44
2022-09-10T03:03:39.169Z,26.45
2022-09-10T03:06:06.172Z,26.43
2022-09-10T03:08:33.424Z,26.44
2022-09-10T03:11:00.030Z,26.44
2022-09-10T03:13:28.061Z,26.44
2022-09-10T03:15:58.896Z,26.45
2022-09-10T03:18:27.974Z,26.44
2022-09-10T03:20:54.593Z,26.43
2022-09-10T03:23:21.256Z,26.44
2022-09-10T03:25:49.843Z,26.44
2022-09-10T03:28:21.416Z,26.36
2022-09-10T03:30:48.570Z,26.43
2022-09-10T03:33:21.022Z,26.45
2022-09-10T03:35:52.277Z,26.42
2022-09-10T03:38:18.910Z,26.43
2022-09-10T03:40:46.337Z,26.43
2022-09-10T03:43:13.040Z,26.43
2022-09-10T03:45:39.943Z,26.43
2022-09-10T03:48:06.814Z,26.43
2022-09-10T03:50:33.499Z,26.43
2022-09-10T03:53:03.918Z,26.42
2022-09-10T03:55:30.728Z,26.42
2022-09-10T03:57:58.241Z,26.43
2022-09-10T04:00:27.021Z,26.41
2022-09-10T04:02:53.784Z,26.42
2022-09-10T04:05:21.235Z,26.38
2022-09-10T04:07:48.780Z,26.42
2022-09-10T04:10:15.521Z,26.42
2022-09-10T04:12:42.392Z,26.42
2022-09-10T04:15:09.313Z,26.42
2022-09-10T04:17:36.511Z,26.41
2022-09-10T04:20:04.415Z,26.41
2022-09-10T04:22:31.540Z,26.41
2022-09-10T04:24:59.957Z,26.42
2022-09-10T04:27:26.845Z,26.41
2022-09-10T04:29:53.424Z,26.41
2022-09-10T04:32:20.127Z,26.41
2022-09-10T04:34:46.764Z,26.41
2022-09-10T04:37:18.748Z,26.42
2022-09-10T04:39:46.387Z,26.40
2022-09-10T04:42:19.035Z,26.41
2022-09-10T04:44:49.235Z,26.42
2022-09-10T04:47:17.393Z,26.41
2022-09-10T04:49:44.302Z,26.41
2022-09-10T04:52:13.156Z,26.40
2022-09-10T04:54:40.181Z,26.40
2022-09-10T04:57:07.303Z,26.32
2022-09-10T04:59:35.066Z,26.41
2022-09-10T05:02:03.607Z,26.41
2022-09-10T05:04:30.341Z,26.40
2022-09-10T05:06:59.469Z,26.41
2022-09-10T05:09:31.079Z,26.00
2022-09-10T05:11:59.212Z,26.39
2022-09-10T05:14:26.532Z,26.39
2022-09-10T05:16:53.135Z,26.39
2022-09-10T05:19:21.317Z,26.39
2022-09-10T05:21:53.942Z,26.39
2022-09-10T05:24:21.121Z,26.38
2022-09-10T05:26:48.413Z,26.37
2022-09-10T05:29:16.617Z,26.38
2022-09-10T05:31:43.621Z,26.37
2022-09-10T05:34:10.580Z,26.37
2022-09-10T05:36:38.048Z,26.38
2022-09-10T05:39:04.833Z,26.38
2022-09-10T05:41:35.221Z,26.38
2022-09-10T05:44:02.176Z,26.37
2022-09-10T05:46:32.991Z,26.38
2022-09-10T05:49:07.697Z,26.39
2022-09-10T05:51:34.291Z,26.38
2022-09-10T05:54:03.679Z,26.38
2022-09-10T05:56:32.134Z,26.34
2022-09-10T05:58:59.108Z,26.38
2022-09-10T06:01:26.143Z,26.38
2022-09-10T06:03:53.725Z,26.38
2022-09-10T06:06:21.205Z,26.37
2022-09-10T06:08:56.239Z,26.37
2022-09-10T06:11:41.828Z,26.37
2022-09-10T06:14:10.296Z,26.37
2022-09-10T06:16:36.857Z,26.36
2022-09-10T06:19:03.660Z,26.36
2022-09-10T06:21:30.827Z,26.34
2022-09-10T06:23:58.221Z,26.32
2022-09-10T06:26:27.600Z,26.36
2022-09-10T06:28:57.944Z,26.36
2022-09-10T06:31:25.079Z,26.38
2022-09-10T06:33:54.035Z,26.37
2022-09-10T06:36:24.027Z,26.36
2022-09-10T06:38:55.595Z,26.31
2022-09-10T06:41:27.162Z,26.37
2022-09-10T06:44:00.300Z,26.39
2022-09-10T06:47:16.024Z,26.39
2022-09-10T06:49:24.759Z,26.40
2022-09-10T06:51:52.338Z,26.41
2022-09-10T06:54:19.217Z,26.42
2022-09-10T06:56:48.773Z,26.41
2022-09-10T06:59:17.023Z,26.41
2022-09-10T07:01:47.589Z,26.42
2022-09-10T07:04:14.979Z,26.43
2022-09-10T07:06:41.841Z,26.43
2022-09-10T07:09:14.904Z,26.45
2022-09-10T07:11:51.315Z,26.45
2022-09-10T07:14:18.712Z,26.46
2022-09-10T07:16:47.479Z,26.46
2022-09-10T07:19:15.354Z,26.46
2022-09-10T07:21:44.825Z,26.45
2022-09-10T07:24:14.437Z,26.45
2022-09-10T07:26:57.102Z,26.44
2022-09-10T07:29:24.069Z,26.45
2022-09-10T07:31:55.002Z,26.43
2022-09-10T07:34:24.215Z,26.44
2022-09-10T07:36:50.784Z,26.43
2022-09-10T07:39:22.352Z,26.42
2022-09-10T07:41:52.332Z,26.43
2022-09-10T07:44:22.261Z,26.40
2022-09-10T07:46:49.645Z,26.47
2022-09-10T07:49:17.622Z,26.50
2022-09-10T07:51:47.562Z,26.53
2022-09-10T07:54:17.317Z,26.55
2022-09-10T07:56:49.813Z,26.58
2022-09-10T07:59:16.807Z,26.58
2022-09-10T08:01:50.261Z,26.57
2022-09-10T08:04:19.128Z,26.60
2022-09-10T08:06:46.324Z,26.60
2022-09-10T08:09:14.802Z,26.59
2022-09-10T08:11:48.576Z,26.59
2022-09-10T08:14:17.136Z,26.59
2022-09-10T08:16:48.132Z,26.60
2022-09-10T08:19:18.034Z,26.60
2022-09-10T08:21:45.574Z,26.60
2022-09-10T08:24:15.672Z,26.60
2022-09-10T08:26:46.530Z,26.59
2022-09-10T08:29:13.763Z,26.60
2022-09-10T08:31:41.477Z,26.59
2022-09-10T08:34:16.728Z,26.58
2022-09-10T08:36:49.684Z,26.57
2022-09-10T08:39:16.284Z,26.58
2022-09-10T08:42:10.956Z,26.57
2022-09-10T08:45:02.865Z,26.58
2022-09-10T08:47:55.421Z,26.45
2022-09-10T08:50:25.048Z,26.55
2022-09-10T08:53:19.393Z,26.55
2022-09-10T08:55:49.080Z,26.54
2022-09-10T08:58:19.060Z,26.57
2022-09-10T09:00:54.002Z,26.55
2022-09-10T09:03:25.171Z,26.61
2022-09-10T09:05:56.027Z,26.62
2022-09-10T09:08:33.298Z,26.50
2022-09-10T09:11:26.951Z,26.64
2022-09-10T09:14:17.168Z,26.64
2022-09-10T09:16:47.284Z,26.65
2022-09-10T09:19:41.745Z,26.65
2022-09-10T09:22:18.959Z,26.66
2022-09-10T09:25:12.831Z,26.66
2022-09-10T09:27:42.271Z,26.66
2022-09-10T09:30:23.092Z,26.68
2022-09-10T09:32:51.404Z,26.69
2022-09-10T09:35:40.959Z,26.69
2022-09-10T09:38:44.676Z,26.70
2022-09-10T09:41:26.619Z,26.66
2022-09-10T09:44:05.343Z,26.71
2022-09-10T09:46:34.373Z,26.72
2022-09-10T09:51:21.279Z,26.75
2022-09-10T09:54:01.025Z,26.28
2022-09-10T09:56:49.785Z,26.75
2022-09-10T09:59:31.508Z,26.76
2022-09-10T10:02:21.576Z,26.76
2022-09-10T10:05:19.413Z,26.76
2022-09-10T10:07:48.663Z,26.77
2022-09-10T10:10:26.421Z,26.74
2022-09-10T10:12:54.935Z,26.77
2022-09-10T10:15:40.973Z,26.79
2022-09-10T10:18:22.981Z,26.80
2022-09-10T10:21:22.206Z,26.79
2022-09-10T10:23:50.547Z,26.79
2022-09-10T10:26:20.297Z,26.78
2022-09-10T10:29:07.482Z,26.80
2022-09-10T10:31:39.124Z,26.80
2022-09-10T10:34:15.054Z,26.81
2022-09-10T10:39:52.494Z,26.81
2022-09-10T10:42:29.473Z,26.75
2022-09-10T10:45:31.068Z,26.82
2022-09-10T10:48:11.579Z,26.82
2022-09-10T10:51:03.247Z,26.83
2022-09-10T10:53:51.645Z,26.82
2022-09-10T10:56:28.653Z,26.75
2022-09-10T10:59:33.752Z,26.85
2022-09-10T11:02:33.390Z,26.84
2022-09-10T11:05:10.625Z,26.85
2022-09-10T11:07:43.688Z,26.84
2022-09-10T11:10:14.943Z,26.84
2022-09-10T11:13:19.864Z,26.85
2022-09-10T11:16:09.597Z,26.85
2022-09-10T11:18:54.092Z,26.85
2022-09-10T11:21:41.707Z,26.84
2022-09-10T11:24:19.371Z,26.75
2022-09-10T11:26:56.583Z,26.86
2022-09-10T11:29:28.400Z,26.84
2022-09-10T11:32:01.366Z,26.86
2022-09-10T11:34:47.486Z,26.87
2022-09-10T11:37:26.401Z,26.87
2022-09-10T11:39:59.153Z,26.85
2022-09-10T11:42:39.709Z,26.87
2022-09-10T11:45:33.612Z,26.88
2022-09-10T11:48:27.462Z,26.87
2022-09-10T11:51:01.997Z,26.87
2022-09-10T11:53:30.403Z,26.88
2022-09-10T11:56:20.248Z,26.89
2022-09-10T11:59:00.237Z,26.88
2022-09-10T12:02:04.088Z,26.88
2022-09-10T12:04:42.736Z,26.88
2022-09-10T12:07:56.936Z,26.89
2022-09-10T12:10:35.564Z,26.90
2022-09-10T12:13:09.703Z,26.91
2022-09-10T12:15:37.800Z,26.91
2022-09-10T12:18:14.963Z,26.92
2022-09-10T12:20:52.859Z,26.91
2022-09-10T12:23:29.275Z,26.93
2022-09-10T12:26:05.491Z,26.94
2022-09-10T12:28:53.800Z,26.94
2022-09-10T12:31:21.947Z,26.95
2022-09-10T12:33:48.397Z,26.96
2022-09-10T12:36:34.882Z,26.96
2022-09-10T12:39:28.624Z,26.97
2022-09-10T12:41:58.531Z,26.97
2022-09-10T12:44:37.568Z,26.98
2022-09-10T12:47:16.479Z,26.99
2022-09-10T12:49:55.319Z,26.99
2022-09-10T12:52:53.189Z,26.99
2022-09-10T12:55:53.159Z,26.99
2022-09-10T12:58:31.989Z,27.01
2022-09-10T13:01:28.913Z,27.01
2022-09-10T13:03:58.544Z,26.97
2022-09-10T13:06:40.571Z,27.03
2022-09-10T13:09:37.800Z,27.04
2022-09-10T13:12:18.141Z,27.04
2022-09-10T13:14:50.240Z,27.03
2022-09-10T13:17:36.484Z,27.03
2022-09-10T13:22:33.434Z,27.02
2022-09-10T13:25:24.793Z,27.02
2022-09-10T13:27:51.591Z,27.02
2022-09-10T13:30:20.760Z,26.99
2022-09-10T13:32:55.480Z,27.03
2022-09-10T13:38:19.265Z,27.05
2022-09-10T13:41:06.376Z,27.06
2022-09-10T13:44:07.137Z,27.08
2022-09-10T13:46:55.450Z,27.00
2022-09-10T13:49:52.823Z,27.09
2022-09-10T13:52:27.064Z,27.00
2022-09-10T13:54:56.280Z,27.11
2022-09-10T13:57:40.778Z,27.13
2022-09-10T14:00:18.106Z,27.15
2022-09-10T14:02:48.579Z,27.15
2022-09-10T14:05:30.375Z,27.16
2022-09-10T14:08:11.558Z,27.17
2022-09-10T14:10:59.344Z,27.18
2022-09-10T14:13:39.713Z,26.88
2022-09-10T14:18:43.369Z,27.19
2022-09-10T14:21:13.556Z,27.19
2022-09-10T14:23:45.785Z,27.18
2022-09-10T14:26:17.238Z,27.21
2022-09-10T14:28:59.624Z,27.21
2022-09-10T14:31:26.541Z,27.21
2022-09-10T14:33:55.728Z,27.22
2022-09-10T14:36:35.924Z,27.23
2022-09-10T14:39:20.313Z,27.24
2022-09-10T14:41:47.497Z,27.24
2022-09-10T14:44:39.531Z,27.23
2022-09-10T14:47:09.204Z,27.23
2022-09-10T14:51:58.510Z,27.25
2022-09-10T14:54:26.749Z,27.24
2022-09-10T14:56:56.526Z,27.23
2022-09-10T14:59:23.028Z,27.23
2022-09-10T15:01:50.095Z,27.24
2022-09-10T15:04:26.177Z,27.23
2022-09-10T15:06:54.856Z,27.25
2022-09-10T15:09:22.061Z,27.15
2022-09-10T15:12:04.547Z,27.24
2022-09-10T15:14:35.358Z,27.23
2022-09-10T15:17:02.796Z,27.22
2022-09-10T15:19:29.523Z,27.21
2022-09-10T15:21:57.539Z,27.19
2022-09-10T15:24:25.202Z,27.18
2022-09-10T15:26:52.371Z,27.17
2022-09-10T15:29:19.014Z,27.15
2022-09-10T15:31:46.076Z,27.14
2022-09-10T15:34:15.664Z,27.14
2022-09-10T15:36:42.530Z,27.13
2022-09-10T15:39:12.900Z,27.12
2022-09-10T15:41:45.360Z,27.11
2022-09-10T15:44:12.536Z,27.11
2022-09-10T15:46:42.076Z,27.09
2022-09-10T15:49:08.796Z,26.71
2022-09-10T15:51:35.340Z,27.07
2022-09-10T15:54:04.904Z,27.02
2022-09-10T15:56:33.596Z,26.95
2022-09-10T15:59:00.898Z,26.93
2022-09-10T16:01:30.949Z,26.91
2022-09-10T16:04:04.416Z,26.87
2022-09-10T16:06:39.357Z,26.84
2022-09-10T16:09:11.889Z,26.79
2022-09-10T16:11:40.156Z,26.77
2022-09-10T16:14:08.558Z,26.73
2022-09-10T16:16:36.187Z,26.71
2022-09-10T16:19:09.144Z,26.69
2022-09-10T16:21:37.723Z,26.67
2022-09-10T16:24:05.528Z,26.65
2022-09-10T16:26:35.826Z,26.61
2022-09-10T16:29:06.370Z,26.57
2022-09-10T16:31:35.372Z,26.52
2022-09-10T16:34:04.704Z,26.45
2022-09-10T16:36:33.591Z,26.36
2022-09-10T16:39:05.117Z,26.30
2022-09-10T16:41:33.018Z,26.19
2022-09-10T16:44:00.539Z,26.16
2022-09-10T16:46:28.183Z,26.08
2022-09-10T16:48:56.066Z,26.01
2022-09-10T16:53:36.933Z,25.85
2022-09-10T16:56:06.994Z,25.79
2022-09-10T16:58:36.015Z,25.72
2022-09-10T17:01:04.732Z,25.67
2022-09-10T17:03:32.913Z,25.63
2022-09-10T17:06:00.157Z,25.58
2022-09-10T17:08:29.239Z,25.54
2022-09-10T17:10:56.788Z,25.30
2022-09-10T17:13:23.368Z,25.29
2022-09-10T17:15:50.672Z,25.20
2022-09-10T17:18:17.192Z,25.10
2022-09-10T17:20:44.148Z,24.99
2022-09-10T17:23:12.764Z,24.90
2022-09-10T17:25:39.428Z,24.88
2022-09-10T17:28:06.056Z,24.93
2022-09-10T17:30:35.900Z,24.98
2022-09-10T17:33:02.502Z,25.00
2022-09-10T17:35:29.080Z,25.00
2022-09-10T17:37:55.632Z,25.03
2022-09-10T17:40:23.910Z,25.05
2022-09-10T17:42:50.396Z,25.12
2022-09-10T17:47:40.803Z,25.25
2022-09-10T17:50:08.252Z,25.32
2022-09-10T17:52:35.381Z,25.39
2022-09-10T17:55:02.860Z,25.45
2022-09-10T17:57:30.142Z,25.52
2022-09-10T17:59:57.667Z,25.53
2022-09-10T18:02:24.869Z,25.59
2022-09-10T18:04:51.647Z,25.59
2022-09-10T18:07:18.345Z,25.70
2022-09-10T18:09:45.233Z,25.73
2022-09-10T18:12:13.452Z,25.76
2022-09-10T18:14:40.189Z,25.79
2022-09-10T18:17:07.293Z,25.81
2022-09-10T18:19:34.354Z,25.82
2022-09-10T18:22:01.464Z,25.85
2022-09-10T18:24:28.415Z,25.87
2022-09-10T18:26:55.352Z,25.90
2022-09-10T18:29:29.011Z,25.90
2022-09-10T18:32:01.550Z,25.92
2022-09-10T18:34:31.189Z,25.93
2022-09-10T18:37:00.410Z,25.94
2022-09-10T18:39:29.243Z,25.96
2022-09-10T18:41:59.059Z,25.97
2022-09-10T18:44:29.841Z,25.96
2022-09-10T18:46:58.821Z,25.98
2022-09-10T18:49:26.861Z,25.98
2022-09-10T18:51:55.133Z,25.97
2022-09-10T18:54:23.179Z,25.95
2022-09-10T18:56:52.713Z,25.95
2022-09-10T18:59:21.315Z,25.95
2022-09-10T19:01:48.678Z,25.94
2022-09-10T19:04:18.564Z,25.93
2022-09-10T19:06:47.337Z,25.92
2022-09-10T19:09:22.053Z,25.93
2022-09-10T19:11:50.478Z,25.93
2022-09-10T19:14:23.145Z,25.92
2022-09-10T19:16:51.076Z,25.93
2022-09-10T19:19:22.169Z,25.93
2022-09-10T19:21:56.992Z,25.94
2022-09-10T19:24:44.139Z,25.94
2022-09-10T19:27:13.228Z,25.94
2022-09-10T19:29:43.089Z,25.94
2022-09-10T19:32:11.196Z,25.96
2022-09-10T19:34:38.386Z,25.96
2022-09-10T19:37:07.534Z,25.98
2022-09-10T19:39:34.289Z,26.01
2022-09-10T19:42:01.389Z,26.03
2022-09-10T19:44:28.174Z,26.05
2022-09-10T19:46:55.294Z,26.06
2022-09-10T19:49:22.369Z,26.08
2022-09-10T19:51:49.438Z,26.09
2022-09-10T19:54:16.285Z,25.77
2022-09-10T19:56:44.863Z,26.09
2022-09-10T19:59:15.860Z,26.10
2022-09-10T20:01:44.911Z,26.11
2022-09-10T20:04:12.636Z,26.13
2022-09-10T20:06:39.456Z,26.15
2022-09-10T20:09:07.742Z,26.03
2022-09-10T20:11:35.615Z,26.17
2022-09-10T20:14:12.441Z,26.19
2022-09-10T20:16:44.343Z,26.20
2022-09-10T20:19:13.222Z,26.21
2022-09-10T20:21:40.047Z,26.22
2022-09-10T20:24:07.598Z,26.22
2022-09-10T20:26:38.109Z,26.17
2022-09-10T20:29:13.863Z,26.20
2022-09-10T20:31:42.075Z,26.19
2022-09-10T20:34:17.571Z,26.15
2022-09-10T20:36:45.083Z,26.20
2022-09-10T20:39:15.164Z,26.20
2022-09-10T20:41:42.981Z,26.20
2022-09-10T20:44:13.146Z,26.21
2022-09-10T20:46:41.501Z,26.21
2022-09-10T20:49:10.709Z,26.21
2022-09-10T20:51:38.808Z,26.21
2022-09-10T20:54:07.629Z,26.20
2022-09-10T20:56:34.588Z,26.20
2022-09-10T20:59:01.933Z,26.21
2022-09-10T21:01:33.053Z,26.22
2022-09-10T21:04:01.330Z,26.20
2022-09-10T21:06:30.099Z,26.20
2022-09-10T21:08:57.029Z,26.18
2022-09-10T21:11:25.939Z,26.19
2022-09-10T21:13:55.123Z,26.18
2022-09-10T21:16:24.372Z,26.09
2022-09-10T21:18:55.044Z,26.17
2022-09-10T21:21:26.816Z,26.16
2022-09-10T21:23:58.815Z,26.17
2022-09-10T21:26:26.798Z,26.17
2022-09-10T21:28:56.234Z,26.17
2022-09-10T21:31:24.485Z,26.17
2022-09-10T21:33:51.608Z,26.16
2022-09-10T21:36:20.235Z,26.17
2022-09-10T21:38:51.517Z,26.16
2022-09-10T21:41:24.179Z,26.15
2022-09-10T21:43:51.749Z,26.16
2022-09-10T21:46:19.510Z,26.15
2022-09-10T21:48:46.219Z,26.15
2022-09-10T21:51:16.141Z,26.15
2022-09-10T21:56:12.593Z,26.16
2022-09-10T21:58:39.910Z,26.14
2022-09-10T22:01:15.201Z,26.15
2022-09-10T22:03:41.974Z,26.15
2022-09-10T22:06:30.449Z,26.06
2022-09-10T22:09:02.575Z,26.15
2022-09-10T22:11:38.107Z,26.07
2022-09-10T22:14:07.955Z,26.15
2022-09-10T22:16:35.559Z,26.15
2022-09-10T22:19:08.804Z,26.14
2022-09-10T22:21:38.168Z,26.14
2022-09-10T22:24:06.309Z,26.00
2022-09-10T22:26:33.763Z,26.02
2022-09-10T22:29:00.756Z,26.14
2022-09-10T22:31:31.240Z,26.15
2022-09-10T22:34:03.275Z,26.16
2022-09-10T22:36:31.466Z,26.16
2022-09-10T22:39:02.486Z,26.17
2022-09-10T22:41:31.658Z,26.15
2022-09-10T22:43:58.496Z,26.16
2022-09-10T22:46:26.513Z,26.16
2022-09-10T22:48:53.524Z,26.15
2022-09-10T22:51:25.411Z,26.15
2022-09-10T22:53:54.288Z,26.10
2022-09-10T22:56:22.359Z,26.16
2022-09-10T22:58:52.488Z,26.14
2022-09-10T23:01:21.981Z,26.15
2022-09-10T23:03:48.834Z,26.15
2022-09-10T23:06:21.651Z,26.16
2022-09-10T23:08:51.492Z,26.16
2022-09-10T23:11:27.009Z,26.09
2022-09-10T23:13:57.382Z,26.16
2022-09-10T23:16:26.384Z,26.16
2022-09-10T23:18:54.952Z,26.02
2022-09-10T23:21:23.941Z,26.15
2022-09-10T23:24:03.096Z,26.17
2022-09-10T23:26:30.439Z,26.17
2022-09-10T23:28:57.444Z,26.17
2022-09-10T23:31:29.455Z,26.17
2022-09-10T23:33:57.205Z,26.16
2022-09-10T23:36:25.229Z,26.16
2022-09-10T23:38:51.888Z,26.09
2022-09-10T23:41:18.456Z,26.16
2022-09-10T23:43:45.443Z,26.16
2022-09-10T23:46:13.153Z,26.15
2022-09-10T23:48:42.530Z,26.14
2022-09-10T23:51:12.005Z,26.14
2022-09-10T23:53:39.448Z,25.75
2022-09-10T23:56:06.835Z,26.14
2022-09-10T23:58:33.391Z,26.15
